createdAt,value
2023-05-11T00:03:34.120Z,1.80
2023-05-11T00:08:36.304Z,2.60
2023-05-11T00:13:38.165Z,1.83
2023-05-11T00:18:40.128Z,2.13
2023-05-11T00:23:42.027Z,2.75
2023-05-11T00:28:45.431Z,2.47
2023-05-11T00:33:47.395Z,2.38
2023-05-11T00:38:50.211Z,2.58
2023-05-11T00:43:52.134Z,2.35
2023-05-11T00:48:54.403Z,2.78
2023-05-11T00:53:56.336Z,2.88
2023-05-11T00:58:58.451Z,2.85
2023-05-11T01:04:00.546Z,2.63
2023-05-11T01:09:29.046Z,2.45
2023-05-11T01:14:37.631Z,2.70
2023-05-11T01:19:48.798Z,3.05
2023-05-11T01:25:14.051Z,3.20
2023-05-11T01:30:41.906Z,2.97
2023-05-11T01:35:51.006Z,3.20
2023-05-11T01:40:57.594Z,2.78
2023-05-11T01:46:02.266Z,3.30
2023-05-11T01:51:05.879Z,3.20
2023-05-11T01:56:09.537Z,4.05
2023-05-11T02:01:12.706Z,3.97
2023-05-11T02:06:18.117Z,3.60
2023-05-11T02:11:23.954Z,3.60
2023-05-11T02:16:30.111Z,2.80
2023-05-11T02:21:33.127Z,2.95
2023-05-11T02:26:35.329Z,2.75
2023-05-11T02:31:44.191Z,3.30
2023-05-11T02:36:53.669Z,3.10
2023-05-11T02:42:01.088Z,3.13
2023-05-11T02:47:06.567Z,2.95
2023-05-11T02:52:11.662Z,2.55
2023-05-11T02:57:19.746Z,3.53
2023-05-11T03:02:22.378Z,3.13
2023-05-11T03:07:24.442Z,3.72
2023-05-11T03:12:31.585Z,3.60
2023-05-11T03:17:36.055Z,3.45
2023-05-11T03:22:39.539Z,3.15
2023-05-11T03:27:44.048Z,3.45
2023-05-11T03:32:46.567Z,2.80
2023-05-11T03:37:51.582Z,2.63
2023-05-11T03:42:55.733Z,2.80
2023-05-11T03:48:00.472Z,2.55
2023-05-11T03:53:03.476Z,2.80
2023-05-11T03:58:09.937Z,2.67
2023-05-11T04:03:12.654Z,2.60
2023-05-11T04:08:15.484Z,2.28
2023-05-11T04:13:17.397Z,2.58
2023-05-11T04:18:19.658Z,2.92
2023-05-11T04:23:21.926Z,3.03
2023-05-11T04:28:27.667Z,2.45
2023-05-11T04:33:30.596Z,2.33
2023-05-11T04:38:34.088Z,2.58
2023-05-11T04:43:36.576Z,2.45
2023-05-11T04:48:38.436Z,2.45
2023-05-11T04:53:40.681Z,2.30
2023-05-11T04:58:42.909Z,2.30
2023-05-11T05:03:48.655Z,2.05
2023-05-11T05:08:50.822Z,2.35
2023-05-11T05:13:54.945Z,1.95
2023-05-11T05:18:57.450Z,2.13
2023-05-11T05:23:59.825Z,2.08
2023-05-11T05:29:01.749Z,2.40
2023-05-11T05:34:04.723Z,2.28
2023-05-11T05:39:12.029Z,2.55
2023-05-11T05:44:15.165Z,2.00
2023-05-11T05:49:17.710Z,1.98
2023-05-11T05:54:19.621Z,2.03
2023-05-11T05:59:23.590Z,2.42
2023-05-11T06:04:30.509Z,1.67
2023-05-11T06:09:32.424Z,2.08
2023-05-11T06:14:34.356Z,1.88
2023-05-11T06:19:38.850Z,1.77
2023-05-11T06:24:40.953Z,1.95
2023-05-11T06:29:44.644Z,1.90
2023-05-11T06:34:46.943Z,2.38
2023-05-11T06:39:49.809Z,1.63
2023-05-11T06:44:52.014Z,1.77
2023-05-11T06:49:54.428Z,1.90
2023-05-11T06:54:56.729Z,1.58
2023-05-11T06:59:58.775Z,1.60
2023-05-11T07:05:00.728Z,1.52
2023-05-11T07:10:02.818Z,1.98
2023-05-11T07:15:05.005Z,1.65
2023-05-11T07:20:08.099Z,1.48
2023-05-11T07:25:10.199Z,1.70
2023-05-11T07:30:12.582Z,1.67
2023-05-11T07:35:17.620Z,2.08
2023-05-11T07:40:19.936Z,1.58
2023-05-11T07:45:22.423Z,1.70
2023-05-11T07:50:24.972Z,1.27
2023-05-11T07:55:30.163Z,1.98
2023-05-11T08:00:31.982Z,1.85
2023-05-11T08:05:37.535Z,1.75
2023-05-11T08:10:39.866Z,1.77
2023-05-11T08:15:41.726Z,2.15
2023-05-11T08:20:43.725Z,1.63
2023-05-11T08:25:52.794Z,1.83
2023-05-11T08:30:58.608Z,1.38
2023-05-11T08:36:00.643Z,1.92
2023-05-11T08:41:03.382Z,1.40
2023-05-11T08:46:09.256Z,1.85
2023-05-11T08:51:11.276Z,2.08
2023-05-11T08:56:13.653Z,2.35
2023-05-11T09:01:23.586Z,1.73
2023-05-11T09:06:27.230Z,1.77
2023-05-11T09:11:30.686Z,1.40
2023-05-11T09:16:37.303Z,1.20
2023-05-11T09:21:39.710Z,1.55
2023-05-11T09:26:41.594Z,1.70
2023-05-11T09:31:45.282Z,1.58
2023-05-11T09:36:54.309Z,1.73
2023-05-11T09:42:19.812Z,1.50
2023-05-11T09:47:24.750Z,1.30
2023-05-11T09:52:27.106Z,1.80
2023-05-11T09:57:31.648Z,1.45
2023-05-11T10:02:34.601Z,1.65
2023-05-11T10:07:37.507Z,1.40
2023-05-11T10:12:40.507Z,1.90
2023-05-11T10:17:46.337Z,1.48
2023-05-11T10:22:50.836Z,1.33
2023-05-11T10:27:55.095Z,1.08
2023-05-11T10:32:57.656Z,1.02
2023-05-11T10:38:01.219Z,1.13
2023-05-11T10:43:06.269Z,1.45
2023-05-11T10:48:27.132Z,1.20
2023-05-11T10:53:38.056Z,1.25
2023-05-11T10:59:09.746Z,1.30
2023-05-11T11:04:13.783Z,1.30
2023-05-11T11:09:16.583Z,1.70
2023-05-11T11:14:19.394Z,1.65
2023-05-11T11:19:30.414Z,1.05
2023-05-11T11:24:38.543Z,1.17
2023-05-11T11:29:40.865Z,1.20
2023-05-11T11:34:44.204Z,1.38
2023-05-11T11:39:50.781Z,1.33
2023-05-11T11:44:52.651Z,1.30
2023-05-11T11:49:55.522Z,1.10
2023-05-11T11:55:02.444Z,1.50
2023-05-11T12:00:11.483Z,1.35
2023-05-11T12:05:19.120Z,1.30
2023-05-11T12:10:23.272Z,1.17
2023-05-11T12:15:31.466Z,1.15
2023-05-11T12:20:33.391Z,1.90
2023-05-11T12:25:35.612Z,1.35
2023-05-11T12:31:00.606Z,1.50
2023-05-11T12:36:02.889Z,1.27
2023-05-11T12:41:06.342Z,1.20
2023-05-11T12:46:08.360Z,1.50
2023-05-11T12:51:10.592Z,1.10
2023-05-11T12:56:12.578Z,1.17
2023-05-11T13:01:14.461Z,1.35
2023-05-11T13:06:20.851Z,0.93
2023-05-11T13:11:27.093Z,1.25
2023-05-11T13:16:31.153Z,1.10
2023-05-11T13:21:33.723Z,1.20
2023-05-11T13:26:35.701Z,1.38
2023-05-11T13:31:48.279Z,1.25
2023-05-11T13:36:50.906Z,1.00
2023-05-11T13:41:55.637Z,1.00
2023-05-11T13:46:57.947Z,0.90
2023-05-11T13:52:00.661Z,0.68
2023-05-11T13:57:03.114Z,1.10
2023-05-11T14:02:05.580Z,0.90
2023-05-11T14:07:08.748Z,1.00
2023-05-11T14:12:10.697Z,1.02
2023-05-11T14:17:13.727Z,1.30
2023-05-11T14:22:15.953Z,0.88
2023-05-11T14:27:18.032Z,1.10
2023-05-11T14:32:21.318Z,0.90
2023-05-11T14:37:23.328Z,1.00
2023-05-11T14:42:25.782Z,0.95
2023-05-11T14:47:27.845Z,1.02
2023-05-11T14:52:31.252Z,1.10
2023-05-11T14:57:33.397Z,0.80
2023-05-11T15:02:35.368Z,1.23
2023-05-11T15:07:38.787Z,1.02
2023-05-11T15:12:40.706Z,0.80
2023-05-11T15:17:42.571Z,0.93
2023-05-11T15:22:45.035Z,0.90
2023-05-11T15:27:47.527Z,1.33
2023-05-11T15:32:49.487Z,0.77
2023-05-11T15:37:51.545Z,0.95
2023-05-11T15:42:53.773Z,1.08
2023-05-11T15:47:55.691Z,1.10
2023-05-11T15:52:57.508Z,1.63
2023-05-11T15:57:59.396Z,1.08
2023-05-11T16:03:05.865Z,1.30
2023-05-11T16:08:11.374Z,1.92
2023-05-11T16:13:13.447Z,2.60
2023-05-11T16:18:16.798Z,2.38
2023-05-11T16:23:18.707Z,1.20
2023-05-11T16:28:20.591Z,1.10
2023-05-11T16:33:22.584Z,1.00
2023-05-11T16:38:24.492Z,1.40
2023-05-11T16:43:26.441Z,1.30
2023-05-11T16:48:28.500Z,0.93
2023-05-11T16:53:30.431Z,1.25
2023-05-11T16:58:32.575Z,0.90
2023-05-11T17:03:35.161Z,1.25
2023-05-11T17:08:39.143Z,0.80
2023-05-11T17:13:41.190Z,0.95
2023-05-11T17:18:43.146Z,1.17
2023-05-11T17:23:46.215Z,1.15
2023-05-11T17:28:51.506Z,1.27
2023-05-11T17:33:53.553Z,1.20
2023-05-11T17:38:55.795Z,1.00
2023-05-11T17:43:57.900Z,0.90
2023-05-11T17:49:01.421Z,1.30
2023-05-11T17:54:03.589Z,1.02
2023-05-11T17:59:05.942Z,1.10
2023-05-11T18:04:08.081Z,0.90
2023-05-11T18:09:12.504Z,0.95
2023-05-11T18:14:14.413Z,0.90
2023-05-11T18:19:18.190Z,1.02
2023-05-11T18:24:20.348Z,1.05
2023-05-11T18:29:23.176Z,0.90
2023-05-11T18:34:25.071Z,1.08
2023-05-11T18:39:27.086Z,1.05
2023-05-11T18:44:29.372Z,0.98
2023-05-11T18:49:31.418Z,1.58
2023-05-11T18:54:34.225Z,1.20
2023-05-11T18:59:36.077Z,1.10
2023-05-11T19:04:38.013Z,1.45
2023-05-11T19:09:39.898Z,1.58
2023-05-11T19:14:41.862Z,1.42
2023-05-11T19:19:43.669Z,1.38
2023-05-11T19:24:45.499Z,1.23
2023-05-11T19:29:51.178Z,1.10
2023-05-11T19:34:54.115Z,1.15
2023-05-11T19:40:11.165Z,1.27
2023-05-11T19:45:18.107Z,1.75
2023-05-11T19:50:22.572Z,1.48
2023-05-11T19:55:26.172Z,1.23
2023-05-11T20:00:28.228Z,0.95
2023-05-11T20:05:31.134Z,1.40
2023-05-11T20:10:33.577Z,1.15
2023-05-11T20:15:35.590Z,1.02
2023-05-11T20:20:37.444Z,1.40
2023-05-11T20:25:43.723Z,1.25
2023-05-11T20:30:45.680Z,1.40
2023-05-11T20:35:47.693Z,1.40
2023-05-11T20:40:49.623Z,1.13
2023-05-11T20:45:52.199Z,1.23
2023-05-11T20:50:55.803Z,1.30
2023-05-11T20:55:57.788Z,1.30
2023-05-11T21:01:02.647Z,1.52
2023-05-11T21:06:05.849Z,1.40
2023-05-11T21:11:07.702Z,1.60
2023-05-11T21:16:09.673Z,1.13
2023-05-11T21:21:11.858Z,1.25
2023-05-11T21:26:15.213Z,1.33
2023-05-11T21:31:17.588Z,1.38
2023-05-11T21:36:19.684Z,1.67
2023-05-11T21:41:21.484Z,1.50
2023-05-11T21:46:23.770Z,1.67
2023-05-11T21:51:25.588Z,1.90
2023-05-11T21:56:27.382Z,1.25
2023-05-11T22:01:29.222Z,1.92
2023-05-11T22:06:31.594Z,1.88
2023-05-11T22:11:37.890Z,1.38
2023-05-11T22:16:39.847Z,1.48
2023-05-11T22:21:41.764Z,1.60
2023-05-11T22:26:44.706Z,1.23
2023-05-11T22:31:46.700Z,1.30
2023-05-11T22:36:48.594Z,1.60
2023-05-11T22:41:50.673Z,1.45
2023-05-11T22:46:52.736Z,1.40
2023-05-11T22:51:58.742Z,1.27
2023-05-11T22:57:03.722Z,1.33
2023-05-11T23:02:05.750Z,1.42
2023-05-11T23:07:07.970Z,1.58
2023-05-11T23:12:10.847Z,1.40
2023-05-11T23:17:13.379Z,1.73
2023-05-11T23:22:15.248Z,1.52
2023-05-11T23:27:17.314Z,1.73
2023-05-11T23:32:19.126Z,1.60
2023-05-11T23:37:22.329Z,1.77
2023-05-11T23:42:24.158Z,1.42
2023-05-11T23:47:27.138Z,1.40
2023-05-11T23:52:29.827Z,1.42
2023-05-11T23:57:32.245Z,1.20
